Stephenville, Texas
Current Conditions -  °F | °C
As of 10:35 PM on Thursday 20 Nov 2014 (Local Time) from KSEP Reporting Station
Clear Clear  
Wind Chill: 57°   Ceiling: Unl
Heat Index: 57°   Visibility: 10mi
Dew Point: 53°   Wind: 3mph
Humidity: 88%   Direction: 170°S
Pressure: 30.06"   Gusts: NA
Location:  32.22°N, 98.2°W
Report Text: KSEP 210435Z AUTO 17003KT 10SM CLR 14/12 A3006 RMK AO2 T01380119
Loading
Personal Weather Stations






























Interactive Weather Map New forecast layout! Learn more

10-Day Weather Forecast

Advertisements
Track Severe Weather on mobile